You are listening to:
KSDF Ground/Tower #1 - Louisville, Kentucky, United States

KSDF 251156Z 15005KT 10SM FEW070 SCT100 BKN140 BKN180 OVC230 17/15 A2984 RMK AO2 RAE15 SLP101 P0000 60007 70046 T01670150 10172 20167 53005

If stream does not start automatically press the play button